Time;durP1;ratioP1;P1;durP2;ratioP2;P2;SDS_P1;SDS_P2;PMS_P1;PMS_P2;Temp;Humidity;BMP_temperature;BMP_pressure;BME280_temperature;BME280_humidity;BME280_pressure;Samples;Min_cycle;Max_cycle;Signal;HPM_P1;HPM_P2
2024/04/19 00:01:51;;;;;;;1.88;1.60;;;;;;;;;;5465360;26;20018;-67
2024/04/19 00:04:18;;;;;;;3.35;1.75;;;;;;;;;;5474698;26;20078;-67
2024/04/19 00:06:50;;;;;;;2.35;1.70;;;;;;;;;;5483101;26;20057;-67
2024/04/19 00:09:17;;;;;;;2.22;1.73;;;;;;;;;;5491939;26;20467;-66
2024/04/19 00:11:48;;;;;;;2.63;2.10;;;;;;;;;;5491672;26;20009;-67
2024/04/19 00:14:15;;;;;;;2.17;1.70;;;;;;;;;;5488064;26;20002;-67
2024/04/19 00:16:46;;;;;;;2.20;1.58;;;;;;;;;;5485058;26;20082;-67
2024/04/19 00:19:16;;;;;;;2.13;1.60;;;;;;;;;;5474807;26;20006;-67
2024/04/19 00:21:46;;;;;;;1.88;1.58;;;;;;;;;;5473868;26;20002;-67
2024/04/19 00:24:14;;;;;;;2.92;1.90;;;;;;;;;;5475126;26;20007;-67
2024/04/19 00:26:44;;;;;;;1.67;1.30;;;;;;;;;;5474918;26;20002;-65
2024/04/19 00:29:11;;;;;;;2.63;1.40;;;;;;;;;;5484984;26;20446;-67
2024/04/19 00:31:42;;;;;;;2.58;1.80;;;;;;;;;;5486408;26;20002;-67
2024/04/19 00:34:09;;;;;;;2.30;1.58;;;;;;;;;;5492754;26;19998;-67
2024/04/19 00:36:42;;;;;;;2.60;1.63;;;;;;;;;;5482290;26;20071;-67
2024/04/19 00:39:09;;;;;;;2.20;1.83;;;;;;;;;;5485624;26;20002;-68
2024/04/19 00:41:40;;;;;;;1.83;1.60;;;;;;;;;;5482324;26;20026;-67
2024/04/19 00:44:07;;;;;;;1.90;1.45;;;;;;;;;;5484999;26;19997;-67
2024/04/19 00:46:38;;;;;;;2.30;1.50;;;;;;;;;;5474903;26;20002;-67
2024/04/19 00:49:05;;;;;;;1.88;1.50;;;;;;;;;;5486209;26;19998;-67
2024/04/19 00:51:38;;;;;;;2.30;1.73;;;;;;;;;;5471151;26;20002;-67
2024/04/19 00:54:08;;;;;;;1.67;1.50;;;;;;;;;;5481223;26;20020;-68
2024/04/19 00:56:38;;;;;;;1.95;1.75;;;;;;;;;;5484623;26;20006;-67
2024/04/19 00:59:06;;;;;;;2.00;1.50;;;;;;;;;;5473097;26;19998;-67
2024/04/19 01:01:37;;;;;;;3.28;1.40;;;;;;;;;;5484536;26;20002;-67
2024/04/19 01:04:04;;;;;;;1.55;1.30;;;;;;;;;;5474247;26;20123;-67
2024/04/19 01:06:35;;;;;;;1.63;1.52;;;;;;;;;;5483566;26;20006;-68
2024/04/19 01:09:04;;;;;;;1.60;1.48;;;;;;;;;;5484979;26;19998;-67
2024/04/19 01:11:37;;;;;;;1.55;1.40;;;;;;;;;;5485361;26;20003;-68
2024/04/19 01:14:04;;;;;;;1.58;1.25;;;;;;;;;;5474790;26;20002;-67
2024/04/19 01:16:35;;;;;;;2.08;1.80;;;;;;;;;;5469525;26;20014;-67
2024/04/19 01:19:06;;;;;;;1.60;1.50;;;;;;;;;;5473908;26;20011;-67
2024/04/19 01:21:36;;;;;;;2.17;1.50;;;;;;;;;;5470059;26;20031;-67
2024/04/19 01:24:07;;;;;;;2.35;1.95;;;;;;;;;;5465924;26;20030;-66
2024/04/19 01:26:40;;;;;;;2.55;1.98;;;;;;;;;;5472045;26;20363;-66
2024/04/19 01:29:07;;;;;;;2.17;1.52;;;;;;;;;;5474675;26;20296;-66
2024/04/19 01:31:38;;;;;;;2.10;1.65;;;;;;;;;;5484709;26;20070;-66
2024/04/19 01:34:05;;;;;;;1.95;1.73;;;;;;;;;;5476582;26;20531;-67
2024/04/19 01:36:35;;;;;;;1.65;1.45;;;;;;;;;;5494018;26;20451;-67
2024/04/19 01:39:03;;;;;;;2.53;1.67;;;;;;;;;;5491804;26;19998;-66
2024/04/19 01:41:33;;;;;;;2.15;1.63;;;;;;;;;;5494362;26;20018;-66
2024/04/19 01:44:03;;;;;;;1.85;1.65;;;;;;;;;;5484543;26;20557;-67
2024/04/19 01:46:34;;;;;;;2.22;1.92;;;;;;;;;;5483433;26;20392;-67
2024/04/19 01:49:01;;;;;;;2.28;1.92;;;;;;;;;;5494675;26;20347;-66
2024/04/19 01:51:32;;;;;;;2.28;1.75;;;;;;;;;;5483978;26;20465;-67
2024/04/19 01:53:59;;;;;;;1.92;1.67;;;;;;;;;;5483550;26;20009;-67
2024/04/19 01:56:29;;;;;;;2.42;1.70;;;;;;;;;;5482445;26;20071;-67
2024/04/19 01:58:57;;;;;;;2.78;2.00;;;;;;;;;;5484555;26;20021;-65
2024/04/19 02:01:30;;;;;;;3.08;1.95;;;;;;;;;;5484385;26;20480;-67
2024/04/19 02:04:00;;;;;;;3.10;2.05;;;;;;;;;;5478144;26;20466;-67
2024/04/19 02:06:27;;;;;;;2.22;1.85;;;;;;;;;;5478867;26;20527;-67
2024/04/19 02:08:58;;;;;;;2.67;2.10;;;;;;;;;;5483918;26;20014;-67
2024/04/19 02:11:25;;;;;;;3.20;2.33;;;;;;;;;;5492547;26;20002;-67
2024/04/19 02:13:55;;;;;;;2.67;2.30;;;;;;;;;;5494369;26;20412;-67
2024/04/19 02:16:23;;;;;;;2.08;1.67;;;;;;;;;;5483619;26;20017;-67
2024/04/19 02:18:56;;;;;;;2.97;2.40;;;;;;;;;;5473502;26;19995;-66
2024/04/19 02:21:27;;;;;;;2.38;2.15;;;;;;;;;;5482824;26;20002;-66
2024/04/19 02:24:01;;;;;;;2.20;2.00;;;;;;;;;;5480637;26;20005;-66
2024/04/19 02:26:28;;;;;;;2.38;1.83;;;;;;;;;;5474598;26;20017;-67
2024/04/19 02:31:45;;;;;;;2.45;1.77;;;;;;;;;;5471936;26;20009;-67
2024/04/19 02:34:17;;;;;;;2.50;2.08;;;;;;;;;;5467935;26;20002;-66
2024/04/19 02:36:48;;;;;;;2.78;2.10;;;;;;;;;;5472846;26;20006;-66
2024/04/19 02:39:18;;;;;;;3.28;2.13;;;;;;;;;;5474947;26;20002;-66
2024/04/19 02:41:48;;;;;;;2.40;2.05;;;;;;;;;;5477341;26;20006;-66
2024/04/19 02:44:18;;;;;;;3.50;2.28;;;;;;;;;;5480267;26;19998;-66
2024/04/19 02:46:50;;;;;;;2.50;2.08;;;;;;;;;;5462351;26;20075;-66
2024/04/19 02:49:23;;;;;;;2.78;2.40;;;;;;;;;;5495033;26;20447;-66
2024/04/19 02:51:53;;;;;;;2.65;1.98;;;;;;;;;;5480098;26;20009;-66
2024/04/19 02:54:23;;;;;;;3.60;2.33;;;;;;;;;;5494746;26;20013;-67
2024/04/19 02:56:53;;;;;;;3.70;2.45;;;;;;;;;;5482664;26;20021;-66
2024/04/19 02:59:23;;;;;;;3.75;2.45;;;;;;;;;;5486223;26;20002;-66
2024/04/19 03:01:53;;;;;;;3.60;2.63;;;;;;;;;;5490339;26;19994;-66
2024/04/19 03:04:26;;;;;;;3.40;2.45;;;;;;;;;;5482866;26;20478;-66
2024/04/19 03:06:56;;;;;;;3.63;2.80;;;;;;;;;;5480594;26;20038;-67
2024/04/19 03:09:26;;;;;;;2.80;2.20;;;;;;;;;;5476865;26;20078;-66
2024/04/19 03:11:57;;;;;;;5.50;2.85;;;;;;;;;;5483272;26;20369;-65
2024/04/19 03:14:27;;;;;;;3.75;2.45;;;;;;;;;;5484269;26;20018;-66
2024/04/19 03:16:57;;;;;;;4.65;2.60;;;;;;;;;;5482606;26;20507;-67
2024/04/19 03:19:30;;;;;;;2.88;2.40;;;;;;;;;;5472897;26;20370;-66
2024/04/19 03:22:00;;;;;;;2.97;2.10;;;;;;;;;;5478278;26;20455;-66
2024/04/19 03:24:30;;;;;;;3.60;2.67;;;;;;;;;;5472718;26;20017;-67
2024/04/19 03:27:00;;;;;;;3.15;2.60;;;;;;;;;;5472308;26;20034;-67
2024/04/19 03:29:31;;;;;;;3.15;2.38;;;;;;;;;;5466363;26;20018;-67
2024/04/19 03:32:01;;;;;;;4.07;2.50;;;;;;;;;;5477046;26;20637;-66
2024/04/19 03:34:34;;;;;;;3.20;2.35;;;;;;;;;;5482718;26;20002;-66
2024/04/19 03:37:04;;;;;;;4.85;2.47;;;;;;;;;;5482861;26;20021;-66
2024/04/19 03:39:34;;;;;;;4.32;2.65;;;;;;;;;;5472392;26;20014;-66
2024/04/19 03:42:10;;;;;;;3.08;2.42;;;;;;;;;;5462721;26;20083;-67
2024/04/19 03:47:27;;;;;;;3.72;2.63;;;;;;;;;;5479712;26;19998;-67
2024/04/19 03:50:00;;;;;;;5.03;3.33;;;;;;;;;;5492464;26;20021;-66
2024/04/19 03:52:30;;;;;;;3.13;2.65;;;;;;;;;;5480737;26;20010;-66
2024/04/19 03:55:00;;;;;;;3.85;2.75;;;;;;;;;;5483133;26;20002;-66
2024/04/19 03:57:30;;;;;;;3.55;2.70;;;;;;;;;;5489972;26;19999;-66
2024/04/19 04:00:01;;;;;;;2.97;2.53;;;;;;;;;;5465541;26;20007;-67
2024/04/19 04:02:31;;;;;;;4.03;2.78;;;;;;;;;;5487783;26;20014;-66
2024/04/19 04:05:04;;;;;;;4.80;2.70;;;;;;;;;;5489016;26;20126;-67
2024/04/19 04:07:34;;;;;;;4.68;2.90;;;;;;;;;;5494281;26;20042;-67
2024/04/19 04:10:04;;;;;;;4.25;2.88;;;;;;;;;;5487636;26;20339;-66
2024/04/19 04:12:35;;;;;;;4.18;3.00;;;;;;;;;;5488217;26;19997;-66
2024/04/19 04:15:05;;;;;;;4.10;3.00;;;;;;;;;;5482383;26;20050;-66
2024/04/19 04:17:35;;;;;;;4.82;3.53;;;;;;;;;;5472622;26;20003;-66
2024/04/19 04:20:08;;;;;;;5.30;3.50;;;;;;;;;;5480870;26;20003;-65
2024/04/19 04:22:39;;;;;;;6.53;3.17;;;;;;;;;;5482283;26;19998;-66
2024/04/19 04:25:09;;;;;;;4.63;2.83;;;;;;;;;;5472022;26;20328;-65
2024/04/19 04:27:39;;;;;;;4.50;3.17;;;;;;;;;;5472640;26;19998;-67
2024/04/19 04:30:10;;;;;;;4.13;3.03;;;;;;;;;;5479606;26;20002;-66
2024/04/19 04:32:40;;;;;;;4.65;3.53;;;;;;;;;;5486436;26;20010;-64
2024/04/19 04:35:13;;;;;;;5.15;3.28;;;;;;;;;;5482025;26;20425;-65
2024/04/19 04:37:43;;;;;;;4.93;3.20;;;;;;;;;;5481248;26;19998;-67
2024/04/19 04:40:13;;;;;;;4.88;3.50;;;;;;;;;;5481638;26;19998;-67
2024/04/19 04:42:43;;;;;;;5.45;3.70;;;;;;;;;;5473830;26;20471;-66
2024/04/19 04:45:14;;;;;;;5.95;3.60;;;;;;;;;;5469123;26;20344;-66
2024/04/19 04:47:44;;;;;;;7.38;4.03;;;;;;;;;;5474447;26;20013;-67
2024/04/19 04:50:17;;;;;;;7.00;4.38;;;;;;;;;;5480523;26;20017;-66
2024/04/19 04:52:47;;;;;;;5.22;3.78;;;;;;;;;;5479728;26;20086;-66
2024/04/19 04:55:17;;;;;;;8.40;3.97;;;;;;;;;;5480296;26;20075;-67
2024/04/19 04:57:47;;;;;;;6.75;4.20;;;;;;;;;;5479925;26;19994;-68
2024/04/19 05:00:18;;;;;;;5.80;3.97;;;;;;;;;;5482121;26;20018;-65
2024/04/19 05:02:49;;;;;;;5.60;3.80;;;;;;;;;;5484539;26;20001;-67
2024/04/19 05:05:22;;;;;;;6.95;4.70;;;;;;;;;;5484447;26;20014;-67
2024/04/19 05:07:52;;;;;;;7.80;4.78;;;;;;;;;;5485215;26;20009;-67
2024/04/19 05:10:22;;;;;;;5.93;3.90;;;;;;;;;;5485415;26;20034;-66
2024/04/19 05:12:52;;;;;;;7.88;4.60;;;;;;;;;;5484194;26;20010;-67
2024/04/19 05:15:22;;;;;;;7.10;4.45;;;;;;;;;;5482968;26;20013;-66
2024/04/19 05:17:53;;;;;;;7.57;4.32;;;;;;;;;;5483315;26;20010;-67
2024/04/19 05:20:26;;;;;;;7.68;4.10;;;;;;;;;;5483280;26;20491;-66
2024/04/19 05:22:56;;;;;;;5.43;3.78;;;;;;;;;;5483456;26;20443;-66
2024/04/19 05:25:26;;;;;;;6.88;3.90;;;;;;;;;;5484376;26;20020;-67
2024/04/19 05:27:56;;;;;;;6.65;4.25;;;;;;;;;;5468341;26;20009;-66
2024/04/19 05:30:27;;;;;;;4.90;3.42;;;;;;;;;;5468289;26;20030;-66
2024/04/19 05:32:58;;;;;;;6.50;4.40;;;;;;;;;;5485037;26;20080;-67
2024/04/19 05:35:30;;;;;;;6.32;3.92;;;;;;;;;;5484301;26;20006;-67
2024/04/19 05:38:02;;;;;;;7.80;4.47;;;;;;;;;;5398215;26;20003;-67
2024/04/19 05:40:32;;;;;;;6.53;3.80;;;;;;;;;;5410497;26;20004;-66
2024/04/19 05:43:02;;;;;;;7.53;4.30;;;;;;;;;;5414801;26;20013;-67
2024/04/19 05:45:32;;;;;;;5.78;3.72;;;;;;;;;;5409301;26;20065;-67
2024/04/19 05:48:00;;;;;;;6.15;3.97;;;;;;;;;;5409165;26;20004;-68
2024/04/19 05:50:33;;;;;;;5.60;3.78;;;;;;;;;;5421297;26;20072;-67
2024/04/19 05:53:03;;;;;;;4.72;3.45;;;;;;;;;;5422262;26;20006;-67
2024/04/19 05:55:33;;;;;;;6.07;4.25;;;;;;;;;;5414519;26;20004;-67
2024/04/19 05:58:03;;;;;;;6.50;3.85;;;;;;;;;;5408243;26;20052;-67
2024/04/19 06:00:33;;;;;;;6.28;3.90;;;;;;;;;;5414142;26;20007;-67
2024/04/19 06:03:04;;;;;;;5.55;3.63;;;;;;;;;;5409018;26;20080;-67
2024/04/19 06:05:36;;;;;;;6.45;3.90;;;;;;;;;;5408352;26;20255;-66
2024/04/19 06:08:07;;;;;;;5.43;3.70;;;;;;;;;;5413758;26;20122;-67
2024/04/19 06:10:37;;;;;;;5.20;3.55;;;;;;;;;;5480483;26;19999;-67
2024/04/19 06:13:08;;;;;;;6.13;3.97;;;;;;;;;;5480854;26;20066;-67
2024/04/19 06:15:40;;;;;;;6.78;3.20;;;;;;;;;;5485451;26;20002;-66
2024/04/19 06:18:10;;;;;;;5.18;3.83;;;;;;;;;;5482566;26;20069;-67
2024/04/19 06:20:43;;;;;;;4.07;3.20;;;;;;;;;;5487212;26;20078;-66
2024/04/19 06:23:13;;;;;;;5.15;3.38;;;;;;;;;;5478270;26;20524;-65
2024/04/19 06:25:44;;;;;;;4.75;3.30;;;;;;;;;;5482416;26;20002;-66
2024/04/19 06:28:14;;;;;;;5.50;3.17;;;;;;;;;;5481495;26;20051;-66
2024/04/19 06:30:44;;;;;;;5.30;3.40;;;;;;;;;;5483677;26;19998;-66
2024/04/19 06:33:15;;;;;;;6.35;3.83;;;;;;;;;;5482672;26;20031;-68
2024/04/19 06:35:48;;;;;;;6.32;3.90;;;;;;;;;;5483215;26;20002;-67
2024/04/19 06:38:18;;;;;;;7.15;3.63;;;;;;;;;;5483089;26;20079;-67
2024/04/19 06:40:48;;;;;;;5.50;2.72;;;;;;;;;;5482760;26;20002;-67
2024/04/19 06:43:19;;;;;;;5.68;3.78;;;;;;;;;;5479777;26;20009;-67
2024/04/19 06:45:49;;;;;;;5.22;3.58;;;;;;;;;;5482405;26;20013;-67
2024/04/19 06:48:19;;;;;;;4.85;3.30;;;;;;;;;;5481778;26;20013;-67
2024/04/19 06:50:52;;;;;;;4.00;3.03;;;;;;;;;;5480748;26;20014;-66
2024/04/19 06:53:22;;;;;;;5.57;3.90;;;;;;;;;;5482277;26;19998;-67
2024/04/19 06:55:52;;;;;;;5.53;3.30;;;;;;;;;;5479895;26;20096;-67
2024/04/19 06:58:23;;;;;;;5.50;3.10;;;;;;;;;;5476972;26;20002;-67
2024/04/19 07:00:53;;;;;;;4.88;3.40;;;;;;;;;;5482955;26;20022;-66
2024/04/19 07:03:43;;;;;;;4.50;3.38;;;;;;;;;;5477775;26;20030;-66
2024/04/19 07:06:16;;;;;;;6.75;3.95;;;;;;;;;;5480295;26;20001;-66
2024/04/19 07:08:59;;;;;;;4.97;3.28;;;;;;;;;;5476009;26;19994;-66
2024/04/19 07:11:30;;;;;;;4.97;2.83;;;;;;;;;;5478297;26;20546;-66
2024/04/19 07:14:00;;;;;;;7.97;3.80;;;;;;;;;;5482713;26;20002;-65
2024/04/19 07:16:30;;;;;;;4.70;3.13;;;;;;;;;;5482568;26;20013;-68
2024/04/19 07:19:00;;;;;;;5.00;3.35;;;;;;;;;;5464222;26;19994;-66
2024/04/19 07:21:34;;;;;;;5.05;3.38;;;;;;;;;;5480944;26;20021;-66
2024/04/19 07:24:04;;;;;;;5.00;2.92;;;;;;;;;;5479725;26;20010;-66
2024/04/19 07:26:37;;;;;;;5.63;3.47;;;;;;;;;;5475026;26;20374;-66
2024/04/19 07:29:07;;;;;;;7.38;3.38;;;;;;;;;;5482658;26;19994;-66
2024/04/19 07:31:37;;;;;;;4.70;2.85;;;;;;;;;;5478789;26;20077;-66
2024/04/19 07:34:08;;;;;;;6.63;3.65;;;;;;;;;;5478829;26;20129;-67
2024/04/19 07:36:40;;;;;;;4.32;2.92;;;;;;;;;;5480542;26;20014;-65
2024/04/19 07:39:11;;;;;;;3.75;2.88;;;;;;;;;;5479370;26;20073;-66
2024/04/19 07:41:41;;;;;;;5.63;3.40;;;;;;;;;;5463211;26;20074;-67
2024/04/19 07:44:13;;;;;;;6.22;3.83;;;;;;;;;;5481812;26;20006;-67
2024/04/19 07:46:43;;;;;;;6.70;4.05;;;;;;;;;;5478676;26;20082;-67
2024/04/19 07:49:13;;;;;;;4.80;3.08;;;;;;;;;;5482392;26;19998;-66
2024/04/19 07:51:46;;;;;;;5.43;3.35;;;;;;;;;;5483629;26;20002;-67
2024/04/19 07:54:16;;;;;;;5.68;3.50;;;;;;;;;;5481062;26;19998;-67
2024/04/19 07:56:46;;;;;;;6.00;3.47;;;;;;;;;;5483502;26;20021;-67
2024/04/19 07:59:17;;;;;;;4.55;3.35;;;;;;;;;;5476325;26;19998;-67
2024/04/19 08:01:47;;;;;;;5.45;3.40;;;;;;;;;;5479610;26;20002;-65
2024/04/19 08:04:17;;;;;;;5.45;3.47;;;;;;;;;;5479423;26;20013;-66
2024/04/19 08:06:50;;;;;;;5.78;3.08;;;;;;;;;;5477681;26;20441;-66
2024/04/19 08:09:20;;;;;;;5.28;3.65;;;;;;;;;;5478955;26;20002;-66
2024/04/19 08:11:51;;;;;;;5.82;3.53;;;;;;;;;;5475715;26;20021;-66
2024/04/19 08:14:21;;;;;;;5.70;3.75;;;;;;;;;;5479683;26;20013;-67
2024/04/19 08:16:51;;;;;;;4.80;3.15;;;;;;;;;;5474623;26;20006;-66
2024/04/19 08:19:21;;;;;;;5.28;3.50;;;;;;;;;;5482119;26;20009;-67
2024/04/19 08:21:54;;;;;;;5.25;3.55;;;;;;;;;;5477879;26;20002;-66
2024/04/19 08:24:26;;;;;;;5.05;3.42;;;;;;;;;;5482620;26;20020;-66
2024/04/19 08:26:56;;;;;;;5.00;3.20;;;;;;;;;;5477294;26;20002;-66
2024/04/19 08:29:27;;;;;;;6.40;3.72;;;;;;;;;;5480914;26;20066;-66
2024/04/19 08:32:09;;;;;;;5.50;3.47;;;;;;;;;;5483906;26;20520;-66
2024/04/19 08:34:39;;;;;;;4.38;3.13;;;;;;;;;;5486042;26;20006;-66
2024/04/19 08:37:12;;;;;;;4.32;2.60;;;;;;;;;;5482593;26;20002;-65
2024/04/19 08:39:42;;;;;;;5.60;3.08;;;;;;;;;;5490190;26;20331;-67
2024/04/19 08:42:16;;;;;;;4.15;2.90;;;;;;;;;;5487956;26;20427;-65
2024/04/19 08:44:47;;;;;;;4.55;2.92;;;;;;;;;;5485155;26;19998;-66
2024/04/19 08:47:18;;;;;;;3.83;2.83;;;;;;;;;;5485069;26;20006;-65
2024/04/19 08:49:49;;;;;;;4.00;2.45;;;;;;;;;;5486249;26;20013;-65
2024/04/19 08:52:23;;;;;;;3.95;2.65;;;;;;;;;;5482638;26;20030;-65
2024/04/19 08:55:14;;;;;;;4.53;2.67;;;;;;;;;;5484047;26;20045;-64
2024/04/19 08:57:46;;;;;;;4.50;2.50;;;;;;;;;;5475541;26;20366;-66
2024/04/19 09:00:16;;;;;;;3.67;2.40;;;;;;;;;;5484476;26;20454;-67
2024/04/19 09:02:50;;;;;;;3.85;2.58;;;;;;;;;;5483379;26;20002;-65
2024/04/19 09:05:21;;;;;;;5.28;3.15;;;;;;;;;;5483081;26;19999;-65
2024/04/19 09:07:53;;;;;;;4.25;2.60;;;;;;;;;;5463200;26;20003;-66
2024/04/19 09:10:24;;;;;;;4.30;2.60;;;;;;;;;;5488057;26;20137;-65
2024/04/19 09:12:54;;;;;;;4.78;2.72;;;;;;;;;;5485695;26;20147;-65
2024/04/19 09:15:24;;;;;;;4.13;2.85;;;;;;;;;;5480645;26;20010;-65
2024/04/19 09:17:54;;;;;;;4.00;2.80;;;;;;;;;;5482749;26;20542;-65
2024/04/19 09:20:25;;;;;;;3.50;2.30;;;;;;;;;;5482740;26;20010;-66
2024/04/19 09:22:58;;;;;;;2.97;1.60;;;;;;;;;;5485365;26;20466;-65
2024/04/19 09:25:28;;;;;;;3.72;2.30;;;;;;;;;;5484387;26;19994;-65
2024/04/19 09:27:58;;;;;;;2.67;2.00;;;;;;;;;;5481446;26;20464;-65
2024/04/19 09:30:28;;;;;;;4.28;2.08;;;;;;;;;;5485503;26;20455;-66
2024/04/19 09:32:59;;;;;;;3.40;2.35;;;;;;;;;;5484962;26;20002;-64
2024/04/19 09:35:30;;;;;;;3.33;2.22;;;;;;;;;;5483713;26;19998;-65
2024/04/19 09:38:03;;;;;;;3.67;2.40;;;;;;;;;;5432762;26;20014;-65
2024/04/19 09:40:36;;;;;;;3.50;2.33;;;;;;;;;;5443846;26;20002;-65
2024/04/19 09:43:07;;;;;;;3.65;2.47;;;;;;;;;;5442251;26;20453;-64
2024/04/19 09:45:44;;;;;;;2.88;2.20;;;;;;;;;;5471543;26;20416;-65
2024/04/19 09:48:16;;;;;;;4.53;2.45;;;;;;;;;;5426695;26;20013;-65
2024/04/19 09:50:49;;;;;;;3.97;2.55;;;;;;;;;;5445333;26;20014;-65
2024/04/19 09:53:29;;;;;;;3.40;2.33;;;;;;;;;;5447276;26;20340;-65
2024/04/19 09:56:11;;;;;;;2.83;2.00;;;;;;;;;;5445668;26;20017;-66
2024/04/19 09:58:41;;;;;;;5.38;2.38;;;;;;;;;;5443332;26;19999;-66
2024/04/19 10:01:12;;;;;;;3.63;2.40;;;;;;;;;;5445203;26;19998;-65
2024/04/19 10:03:42;;;;;;;3.72;2.38;;;;;;;;;;5444765;26;19998;-65
2024/04/19 10:06:13;;;;;;;3.15;2.03;;;;;;;;;;5440493;26;20003;-65
2024/04/19 10:08:46;;;;;;;3.03;1.95;;;;;;;;;;5452399;26;20478;-66
2024/04/19 10:11:17;;;;;;;4.50;2.50;;;;;;;;;;5483582;26;20003;-66
2024/04/19 10:13:47;;;;;;;3.08;2.30;;;;;;;;;;5485393;26;19998;-66
2024/04/19 10:16:18;;;;;;;3.95;2.17;;;;;;;;;;5484761;26;20002;-66
2024/04/19 10:18:50;;;;;;;3.72;2.20;;;;;;;;;;5485329;26;20061;-66
2024/04/19 10:21:20;;;;;;;4.90;2.15;;;;;;;;;;5485398;26;20554;-66
2024/04/19 10:23:53;;;;;;;2.65;1.85;;;;;;;;;;5485332;26;20098;-66
2024/04/19 10:26:24;;;;;;;2.17;1.33;;;;;;;;;;5486514;26;20432;-65
2024/04/19 10:28:57;;;;;;;3.72;2.40;;;;;;;;;;5468867;26;19998;-68
2024/04/19 10:31:28;;;;;;;2.70;1.85;;;;;;;;;;5482495;26;21275;-67
2024/04/19 10:33:58;;;;;;;2.25;1.48;;;;;;;;;;5485428;26;20618;-65
2024/04/19 10:36:31;;;;;;;2.03;1.75;;;;;;;;;;5482534;26;20009;-66
2024/04/19 10:39:04;;;;;;;2.38;1.60;;;;;;;;;;5485308;26;20014;-66
2024/04/19 10:41:34;;;;;;;1.98;1.50;;;;;;;;;;5483243;26;19998;-66
2024/04/19 10:44:05;;;;;;;2.72;1.90;;;;;;;;;;5481819;26;20339;-66
2024/04/19 10:46:36;;;;;;;2.83;1.80;;;;;;;;;;5462152;26;19998;-66
2024/04/19 10:49:07;;;;;;;1.90;1.48;;;;;;;;;;5480096;26;20116;-67
2024/04/19 10:51:37;;;;;;;4.22;1.95;;;;;;;;;;5482501;26;20456;-67
2024/04/19 10:54:11;;;;;;;2.60;1.70;;;;;;;;;;5482206;26;20010;-67
2024/04/19 10:56:41;;;;;;;3.20;1.80;;;;;;;;;;5483667;26;20083;-66
2024/04/19 10:59:11;;;;;;;2.22;1.60;;;;;;;;;;5482569;26;20094;-66
2024/04/19 11:01:42;;;;;;;2.15;1.70;;;;;;;;;;5484204;26;20009;-66
2024/04/19 11:04:13;;;;;;;2.50;1.80;;;;;;;;;;5481824;26;20021;-65
2024/04/19 11:06:43;;;;;;;4.45;1.92;;;;;;;;;;5487684;26;19998;-67
2024/04/19 11:09:18;;;;;;;1.50;1.40;;;;;;;;;;5466116;26;20004;-67
2024/04/19 11:11:48;;;;;;;1.65;1.50;;;;;;;;;;5481259;26;20010;-66
2024/04/19 11:14:20;;;;;;;2.60;1.70;;;;;;;;;;5484180;26;20370;-65
2024/04/19 11:16:51;;;;;;;1.58;1.38;;;;;;;;;;5477410;26;19994;-65
2024/04/19 11:19:21;;;;;;;1.65;1.20;;;;;;;;;;5483206;26;20002;-65
2024/04/19 11:21:53;;;;;;;2.22;1.50;;;;;;;;;;5479555;26;20014;-65
2024/04/19 11:24:26;;;;;;;1.38;1.27;;;;;;;;;;5483832;26;20002;-65
2024/04/19 11:26:56;;;;;;;1.92;1.38;;;;;;;;;;5480948;26;20002;-65
2024/04/19 11:29:26;;;;;;;1.73;1.20;;;;;;;;;;5480687;26;20017;-65
2024/04/19 11:31:57;;;;;;;2.05;1.40;;;;;;;;;;5480011;26;20038;-67
2024/04/19 11:34:31;;;;;;;1.90;1.35;;;;;;;;;;5481129;26;20002;-65
2024/04/19 11:37:03;;;;;;;2.08;1.48;;;;;;;;;;5482630;26;20463;-65
2024/04/19 11:39:36;;;;;;;1.77;1.50;;;;;;;;;;5479824;26;20075;-66
2024/04/19 11:42:09;;;;;;;1.48;1.23;;;;;;;;;;5484540;26;20105;-66
2024/04/19 11:44:42;;;;;;;2.03;1.63;;;;;;;;;;5482396;26;20450;-66
2024/04/19 11:47:09;;;;;;;1.80;1.50;;;;;;;;;;5481178;26;20592;-66
2024/04/19 11:49:39;;;;;;;2.08;1.00;;;;;;;;;;5479102;26;20017;-66
2024/04/19 11:52:11;;;;;;;1.60;1.40;;;;;;;;;;5482315;26;20071;-66
2024/04/19 11:54:44;;;;;;;2.75;1.48;;;;;;;;;;5481547;26;20002;-66
2024/04/19 11:57:14;;;;;;;1.90;1.50;;;;;;;;;;5478637;26;20021;-66
2024/04/19 11:59:44;;;;;;;1.92;1.30;;;;;;;;;;5483936;26;20113;-66
2024/04/19 12:02:14;;;;;;;1.58;1.30;;;;;;;;;;5483239;26;19995;-66
2024/04/19 12:04:44;;;;;;;1.90;1.33;;;;;;;;;;5481669;26;20088;-66
2024/04/19 12:07:15;;;;;;;2.33;1.45;;;;;;;;;;5483175;26;19998;-66
2024/04/19 12:09:48;;;;;;;2.15;1.40;;;;;;;;;;5487186;26;20014;-66
2024/04/19 12:12:19;;;;;;;3.50;1.55;;;;;;;;;;5483606;26;20350;-66
2024/04/19 12:15:09;;;;;;;1.77;1.23;;;;;;;;;;5484625;26;20083;-66
2024/04/19 12:17:43;;;;;;;1.67;1.27;;;;;;;;;;5484753;26;19999;-66
2024/04/19 12:20:13;;;;;;;2.90;1.30;;;;;;;;;;5488629;26;20006;-66
2024/04/19 12:23:03;;;;;;;1.80;1.40;;;;;;;;;;5487879;26;20013;-68
2024/04/19 12:25:40;;;;;;;1.23;1.10;;;;;;;;;;5485128;26;20457;-68
2024/04/19 12:28:10;;;;;;;1.20;1.10;;;;;;;;;;5485627;26;20013;-68
2024/04/19 12:30:40;;;;;;;1.15;0.98;;;;;;;;;;5485512;26;20006;-67
2024/04/19 12:33:11;;;;;;;1.45;1.08;;;;;;;;;;5484671;26;20038;-65
2024/04/19 12:35:41;;;;;;;1.73;1.10;;;;;;;;;;5481200;26;20368;-66
2024/04/19 12:38:12;;;;;;;1.45;1.35;;;;;;;;;;5483960;26;20339;-66
2024/04/19 12:40:45;;;;;;;1.98;1.20;;;;;;;;;;5483107;26;20002;-64
2024/04/19 12:43:15;;;;;;;2.05;1.30;;;;;;;;;;5486451;26;20013;-65
2024/04/19 12:45:49;;;;;;;1.98;1.45;;;;;;;;;;5484362;26;20010;-65
2024/04/19 12:48:21;;;;;;;1.23;1.13;;;;;;;;;;5483083;26;20785;-67
2024/04/19 12:50:52;;;;;;;1.38;1.02;;;;;;;;;;5484834;26;20094;-65
2024/04/19 12:53:22;;;;;;;1.45;1.30;;;;;;;;;;5484778;26;20447;-65
2024/04/19 12:55:55;;;;;;;1.15;1.05;;;;;;;;;;5483930;26;20074;-64
2024/04/19 12:58:25;;;;;;;1.00;0.90;;;;;;;;;;5482536;26;20075;-64
2024/04/19 13:01:01;;;;;;;1.35;1.25;;;;;;;;;;5482027;26;20012;-64
2024/04/19 13:03:31;;;;;;;1.90;1.20;;;;;;;;;;5509046;26;20322;-66
2024/04/19 13:06:02;;;;;;;2.15;1.27;;;;;;;;;;5483230;26;20118;-64
2024/04/19 13:08:32;;;;;;;3.33;1.25;;;;;;;;;;5483203;26;20074;-65
2024/04/19 13:11:05;;;;;;;1.52;1.15;;;;;;;;;;5482655;26;20014;-67
2024/04/19 13:13:49;;;;;;;1.20;1.05;;;;;;;;;;5480873;26;20006;-64
2024/04/19 13:16:19;;;;;;;1.20;1.00;;;;;;;;;;5483412;26;20017;-64
2024/04/19 13:18:50;;;;;;;1.27;1.10;;;;;;;;;;5484295;26;20471;-63
2024/04/19 13:21:22;;;;;;;1.40;0.93;;;;;;;;;;5484027;26;20424;-64
2024/04/19 13:23:52;;;;;;;1.13;1.02;;;;;;;;;;5483148;26;19998;-65
2024/04/19 13:26:26;;;;;;;1.00;0.80;;;;;;;;;;5484144;26;20002;-62
2024/04/19 13:28:56;;;;;;;1.77;1.20;;;;;;;;;;5482934;26;20075;-65
2024/04/19 13:31:28;;;;;;;1.35;1.00;;;;;;;;;;5488614;26;20259;-63
2024/04/19 13:33:58;;;;;;;1.70;1.10;;;;;;;;;;5482090;26;20053;-65
2024/04/19 13:36:29;;;;;;;1.10;1.00;;;;;;;;;;5482156;26;20348;-66
2024/04/19 13:38:59;;;;;;;0.68;0.68;;;;;;;;;;5483849;26;20038;-64
2024/04/19 13:41:32;;;;;;;0.80;0.80;;;;;;;;;;5483874;26;20292;-64
2024/04/19 13:44:02;;;;;;;0.82;0.77;;;;;;;;;;5475096;26;20014;-66
2024/04/19 13:46:32;;;;;;;1.10;0.90;;;;;;;;;;5483043;26;20012;-65
2024/04/19 13:49:02;;;;;;;1.55;0.85;;;;;;;;;;5475021;26;19999;-64
2024/04/19 13:51:33;;;;;;;1.00;0.90;;;;;;;;;;5484283;26;20051;-63
2024/04/19 13:54:03;;;;;;;1.80;1.08;;;;;;;;;;5484962;26;20003;-64
2024/04/19 13:56:36;;;;;;;2.35;1.00;;;;;;;;;;5459588;26;20327;-65
2024/04/19 13:59:07;;;;;;;1.33;1.00;;;;;;;;;;5482753;26;20013;-66
2024/04/19 14:01:37;;;;;;;0.80;0.80;;;;;;;;;;5484645;26;20746;-64
2024/04/19 14:04:08;;;;;;;1.30;1.20;;;;;;;;;;5487665;26;20074;-64
2024/04/19 14:06:38;;;;;;;1.95;1.05;;;;;;;;;;5482439;26;20006;-66
2024/04/19 14:09:08;;;;;;;1.17;0.98;;;;;;;;;;5481579;26;19994;-64
2024/04/19 14:11:41;;;;;;;1.27;1.17;;;;;;;;;;5483652;26;20506;-66
2024/04/19 14:14:11;;;;;;;1.45;1.00;;;;;;;;;;5483863;26;19998;-65
2024/04/19 14:16:41;;;;;;;1.08;0.80;;;;;;;;;;5486081;26;20079;-63
2024/04/19 14:19:12;;;;;;;1.08;0.98;;;;;;;;;;5485748;26;20361;-66
2024/04/19 14:21:47;;;;;;;1.20;1.00;;;;;;;;;;5485864;26;20009;-64
2024/04/19 14:24:17;;;;;;;1.10;1.10;;;;;;;;;;5481040;26;20002;-66
2024/04/19 14:26:50;;;;;;;1.67;0.88;;;;;;;;;;5483100;26;20006;-64
2024/04/19 14:29:21;;;;;;;1.08;1.00;;;;;;;;;;5484177;26;19998;-66
2024/04/19 14:31:52;;;;;;;0.90;0.82;;;;;;;;;;5481466;26;20071;-64
2024/04/19 14:34:23;;;;;;;2.05;0.73;;;;;;;;;;5478549;26;20002;-65
2024/04/19 14:36:53;;;;;;;1.02;0.82;;;;;;;;;;5483849;26;20462;-64
2024/04/19 14:39:24;;;;;;;0.98;0.80;;;;;;;;;;5484005;26;20021;-65
2024/04/19 14:41:56;;;;;;;1.05;0.95;;;;;;;;;;5484988;26;20083;-63
2024/04/19 14:44:26;;;;;;;1.70;0.85;;;;;;;;;;5483266;26;20436;-65
2024/04/19 14:46:57;;;;;;;0.98;0.80;;;;;;;;;;5482191;26;19998;-65
2024/04/19 14:49:27;;;;;;;0.88;0.88;;;;;;;;;;5485627;26;20002;-65
2024/04/19 14:52:00;;;;;;;2.20;1.27;;;;;;;;;;5484800;26;20017;-63
2024/04/19 14:54:43;;;;;;;0.90;0.90;;;;;;;;;;5463249;26;19998;-67
2024/04/19 14:57:20;;;;;;;0.88;0.88;;;;;;;;;;5469792;26;20052;-64
2024/04/19 14:59:50;;;;;;;0.93;0.80;;;;;;;;;;5484148;26;20071;-66
2024/04/19 15:02:20;;;;;;;1.00;0.90;;;;;;;;;;5483782;26;20017;-63
2024/04/19 15:04:51;;;;;;;1.00;0.90;;;;;;;;;;5483449;26;20009;-65
2024/04/19 15:07:21;;;;;;;1.60;0.98;;;;;;;;;;5484069;26;20557;-65
2024/04/19 15:09:52;;;;;;;1.75;0.93;;;;;;;;;;5475364;26;20583;-65
2024/04/19 15:12:25;;;;;;;1.92;0.88;;;;;;;;;;5479752;26;20037;-65